Time;durP1;ratioP1;P1;durP2;ratioP2;P2;SDS_P1;SDS_P2;PMS_P1;PMS_P2;Temp;Humidity;BMP_temperature;BMP_pressure;BME280_temperature;BME280_humidity;BME280_pressure;Samples;Min_cycle;Max_cycle;Signal;HPM_P1;HPM_P2
2023/09/15 00:01:31;;;;;;;;;6.33;4.33;;;;;20.43;59.99;101437.28;5091882;27;45512;-52
2023/09/15 00:03:58;;;;;;;;;7.00;4.75;;;;;20.41;60.33;101441.94;5066638;27;46275;-52
2023/09/15 00:06:24;;;;;;;;;4.00;4.00;;;;;20.39;60.59;101443.88;5091100;27;45418;-52
2023/09/15 00:08:50;;;;;;;;;3.00;3.00;;;;;20.36;60.54;101436.91;5089053;27;45458;-50
2023/09/15 00:11:16;;;;;;;;;5.00;3.75;;;;;20.32;60.31;101435.44;5094344;27;45485;-51
2023/09/15 00:13:41;;;;;;;;;5.00;5.00;;;;;20.31;60.07;101439.97;5084498;27;46393;-49
2023/09/15 00:16:07;;;;;;;;;4.00;3.00;;;;;20.28;60.71;101432.13;5091613;27;45278;-53
2023/09/15 00:18:33;;;;;;;;;4.00;4.00;;;;;20.26;60.30;101444.91;5087694;27;67587;-51
2023/09/15 00:20:58;;;;;;;;;5.33;5.33;;;;;20.22;60.76;101438.03;5082918;27;45288;-52
2023/09/15 00:23:24;;;;;;;;;8.00;4.00;;;;;20.19;60.71;101445.53;5090150;27;45315;-50
2023/09/15 00:25:52;;;;;;;;;4.67;4.67;;;;;20.15;60.88;101442.19;5081744;27;73404;-51
2023/09/15 00:28:17;;;;;;;;;3.67;3.00;;;;;20.13;60.30;101444.19;5089997;27;45251;-52
2023/09/15 00:30:42;;;;;;;;;5.33;4.00;;;;;20.10;60.37;101439.88;5082904;27;48392;-51
2023/09/15 00:33:08;;;;;;;;;8.00;5.00;;;;;20.08;60.67;101441.84;5081291;28;48084;-50
2023/09/15 00:35:33;;;;;;;;;4.33;4.33;;;;;20.04;60.91;101434.97;5080982;27;45414;-50
2023/09/15 00:37:59;;;;;;;;;3.00;3.00;;;;;20.02;60.94;101425.28;5086401;27;45482;-51
2023/09/15 00:40:24;;;;;;;;;5.33;5.33;;;;;20.00;60.58;101434.34;5086730;27;45336;-51
2023/09/15 00:42:51;;;;;;;;;3.00;3.00;;;;;19.98;60.96;101430.06;5090739;27;45357;-51
2023/09/15 00:45:22;;;;;;;;;4.00;4.00;;;;;19.97;60.91;101426.50;5079566;27;45357;-52
2023/09/15 00:47:53;;;;;;;;;3.33;3.33;;;;;19.98;61.09;101428.22;5089373;27;45241;-50
2023/09/15 00:50:22;;;;;;;;;4.00;4.00;;;;;19.97;61.15;101425.63;5085430;27;45296;-53
2023/09/15 00:53:17;;;;;;;;;4.00;4.00;;;;;19.94;60.82;101424.03;5071557;27;47217;-54
2023/09/15 00:55:43;;;;;;;;;6.00;5.00;;;;;19.92;61.26;101420.63;5085415;27;45344;-53
2023/09/15 00:58:11;;;;;;;;;2.67;2.00;;;;;19.89;61.54;101423.53;5073507;27;69115;-52
2023/09/15 01:00:40;;;;;;;;;5.00;5.00;;;;;19.87;61.54;101424.66;5087740;27;45686;-54
2023/09/15 01:03:07;;;;;;;;;5.33;4.67;;;;;19.84;61.76;101428.44;5092059;27;47018;-53
2023/09/15 01:05:32;;;;;;;;;4.00;4.00;;;;;19.82;61.78;101425.03;5085658;27;45447;-52
2023/09/15 01:07:57;;;;;;;;;4.67;4.00;;;;;19.81;61.34;101423.28;5077164;27;45345;-53
2023/09/15 01:10:24;;;;;;;;;4.00;3.00;;;;;19.79;61.69;101426.09;5094888;27;67644;-52
2023/09/15 01:12:51;;;;;;;;;5.33;5.33;;;;;19.76;61.45;101420.09;5093779;27;45315;-50
2023/09/15 01:15:17;;;;;;;;;4.00;4.00;;;;;19.75;62.12;101418.34;5071072;27;45633;-49
2023/09/15 01:17:52;;;;;;;;;4.00;4.00;;;;;19.73;62.06;101414.94;5080911;27;45437;-49
2023/09/15 01:20:29;;;;;;;;;5.33;4.33;;;;;19.71;62.26;101411.50;5087965;27;45315;-52
2023/09/15 01:23:16;;;;;;;;;5.00;5.00;;;;;19.68;61.68;101415.28;5089642;27;46517;-52
2023/09/15 01:26:18;;;;;;;;;3.33;3.33;;;;;19.68;61.72;101415.28;5069309;27;45454;-49
2023/09/15 01:29:05;;;;;;;;;3.33;3.33;;;;;19.66;62.28;101415.41;5092762;27;46837;-50
2023/09/15 01:31:30;;;;;;;;;5.67;4.33;;;;;19.65;62.45;101421.78;5094145;27;45466;-53
2023/09/15 01:33:56;;;;;;;;;7.00;4.00;;;;;19.63;62.59;101415.66;5051571;28;71126;-53
2023/09/15 01:36:21;;;;;;;;;5.67;3.33;;;;;19.60;62.91;101413.19;5087869;27;68858;-51
2023/09/15 01:38:47;;;;;;;;;4.33;4.00;;;;;19.59;62.17;101408.78;5092878;27;63340;-52
2023/09/15 01:41:12;;;;;;;;;4.33;4.33;;;;;19.57;62.54;101404.47;5087276;27;69430;-49
2023/09/15 01:43:38;;;;;;;;;3.33;3.33;;;;;19.56;62.26;101402.78;5073990;27;45453;-53
2023/09/15 01:46:04;;;;;;;;;5.33;4.00;;;;;19.54;63.00;101399.34;5092843;27;45358;-49
2023/09/15 01:48:30;;;;;;;;;4.33;4.00;;;;;19.53;62.63;101405.69;5086985;27;45858;-49
2023/09/15 01:50:57;;;;;;;;;6.00;4.67;;;;;19.51;62.92;101406.66;5090747;27;45335;-49
2023/09/15 01:53:23;;;;;;;;;5.33;3.33;;;;;19.50;63.03;101398.72;5067061;27;46171;-52
2023/09/15 01:55:48;;;;;;;;;4.33;4.00;;;;;19.48;62.80;101403.38;5077570;27;63412;-49
2023/09/15 01:58:14;;;;;;;;;6.00;3.00;;;;;19.47;62.61;101404.34;5088876;27;46825;-49
2023/09/15 02:00:39;;;;;;;;;4.33;4.33;;;;;19.44;62.99;101408.16;5076425;27;45295;-50
2023/09/15 02:03:04;;;;;;;;;5.00;4.00;;;;;19.42;62.55;101402.00;5089494;27;46529;-52
2023/09/15 02:05:30;;;;;;;;;4.00;4.00;;;;;19.42;63.34;101406.56;5087252;27;60140;-51
2023/09/15 02:07:56;;;;;;;;;6.00;5.00;;;;;19.40;63.05;101400.41;5094732;27;45544;-49
2023/09/15 02:10:22;;;;;;;;;4.67;4.67;;;;;19.39;62.64;101401.41;5091464;27;45509;-52
2023/09/15 02:12:47;;;;;;;;;5.00;5.00;;;;;19.36;62.72;101401.63;5091904;27;46278;-49
2023/09/15 02:15:13;;;;;;;;;4.00;4.00;;;;;19.33;63.28;101398.22;5091829;27;67676;-51
2023/09/15 02:17:38;;;;;;;;;7.00;6.00;;;;;19.31;62.77;101399.31;5084508;27;45873;-50
2023/09/15 02:20:13;;;;;;;;;7.33;3.33;;;;;19.29;62.99;101398.56;5085102;27;45448;-51
2023/09/15 02:22:42;;;;;;;;;6.00;4.33;;;;;19.26;62.91;101396.94;5089187;27;46132;-50
2023/09/15 02:25:09;;;;;;;;;5.00;5.00;;;;;19.26;62.81;101401.50;5090841;27;45507;-51
2023/09/15 02:27:36;;;;;;;;;5.00;5.00;;;;;19.25;63.34;101394.38;5084863;27;45303;-52
2023/09/15 02:30:02;;;;;;;;;5.33;3.33;;;;;19.25;63.03;101395.22;5090360;27;45570;-52
2023/09/15 02:32:27;;;;;;;;;4.67;4.33;;;;;19.24;63.46;101387.25;5090604;27;46950;-49
2023/09/15 02:34:53;;;;;;;;;3.25;3.25;;;;;19.22;63.42;101389.25;5088178;27;73170;-53
2023/09/15 02:37:18;;;;;;;;;5.67;4.00;;;;;19.21;63.31;101393.75;5065185;27;68588;-52
2023/09/15 02:39:43;;;;;;;;;4.00;4.00;;;;;19.19;63.33;101384.94;5086842;27;45669;-51
2023/09/15 02:42:12;;;;;;;;;4.00;4.00;;;;;19.18;63.69;101388.59;5088855;27;71187;-49
2023/09/15 02:44:37;;;;;;;;;4.33;4.33;;;;;19.17;63.50;101390.44;5086323;27;45454;-51
2023/09/15 02:47:02;;;;;;;;;6.00;5.00;;;;;19.16;63.46;101395.94;5083206;27;45884;-48
2023/09/15 02:49:28;;;;;;;;;5.67;5.67;;;;;19.14;63.53;101387.13;5089255;27;45315;-49
2023/09/15 02:51:53;;;;;;;;;5.67;5.67;;;;;19.13;63.95;101386.25;5094773;27;72696;-51
2023/09/15 02:54:19;;;;;;;;;4.67;4.00;;;;;19.11;63.86;101385.53;5089644;27;45518;-50
2023/09/15 02:56:44;;;;;;;;;5.00;4.33;;;;;19.09;63.94;101389.31;5085477;27;53155;-52
2023/09/15 02:59:10;;;;;;;;;7.00;5.00;;;;;19.07;63.78;101380.47;5091530;27;67988;-52
2023/09/15 03:01:36;;;;;;;;;3.00;3.00;;;;;19.05;63.99;101383.28;5087007;27;46988;-51
2023/09/15 03:04:03;;;;;;;;;4.33;4.33;;;;;19.03;64.39;101390.63;5090209;27;45375;-52
2023/09/15 03:06:28;;;;;;;;;3.00;3.00;;;;;19.02;63.88;101380.84;5093937;27;45594;-53
2023/09/15 03:08:54;;;;;;;;;5.00;5.00;;;;;19.00;64.34;101385.50;5090478;27;63259;-53
2023/09/15 03:11:21;;;;;;;;;6.33;5.33;;;;;18.97;64.00;101370.41;5083669;27;45932;-52
2023/09/15 03:13:47;;;;;;;;;6.67;6.00;;;;;18.95;64.30;101375.03;5093407;27;45650;-53
2023/09/15 03:16:13;;;;;;;;;3.67;3.67;;;;;18.94;64.55;101377.88;5093052;27;45368;-49
2023/09/15 03:18:38;;;;;;;;;3.67;3.67;;;;;18.91;63.92;101375.41;5098234;27;45431;-52
2023/09/15 03:21:04;;;;;;;;;5.00;5.00;;;;;18.89;64.47;101374.63;5094809;27;45725;-51
2023/09/15 03:23:30;;;;;;;;;5.00;5.00;;;;;18.87;64.32;101373.91;5089425;27;45488;-50
2023/09/15 03:26:00;;;;;;;;;6.00;5.00;;;;;18.85;64.21;101376.69;5075774;27;45668;-50
2023/09/15 03:28:25;;;;;;;;;4.00;4.00;;;;;18.84;64.33;101373.16;5089499;27;45505;-52
2023/09/15 03:30:50;;;;;;;;;5.33;5.33;;;;;18.84;64.26;101375.00;5086097;27;75545;-51
2023/09/15 03:33:16;;;;;;;;;5.00;5.00;;;;;18.84;64.73;101369.59;5089339;27;72465;-50
2023/09/15 03:35:41;;;;;;;;;5.00;4.00;;;;;18.82;64.75;101358.91;5086665;27;65155;-52
2023/09/15 03:38:06;;;;;;;;;6.67;5.00;;;;;18.81;64.63;101361.72;5092721;27;45618;-50
2023/09/15 03:40:32;;;;;;;;;8.00;6.67;;;;;18.80;64.81;101357.34;5095690;27;70585;-51
2023/09/15 03:42:57;;;;;;;;;6.00;5.00;;;;;18.79;65.04;101358.31;5089967;27;45459;-50
2023/09/15 03:45:23;;;;;;;;;3.67;3.67;;;;;18.79;65.26;101356.47;5093436;27;67261;-52
2023/09/15 03:47:48;;;;;;;;;5.00;5.00;;;;;18.78;65.25;101357.44;5097268;27;59791;-51
2023/09/15 03:50:19;;;;;;;;;6.67;5.00;;;;;18.78;64.80;101356.59;5092912;27;45972;-49
2023/09/15 03:52:45;;;;;;;;;6.00;5.00;;;;;18.77;65.37;101349.47;5086445;27;45549;-51
2023/09/15 03:55:10;;;;;;;;;4.00;3.00;;;;;18.78;65.20;101353.91;5071806;27;45624;-50
2023/09/15 03:57:37;;;;;;;;;7.67;6.00;;;;;18.76;65.30;101347.75;5090290;27;65653;-51
2023/09/15 04:00:04;;;;;;;;;5.67;4.00;;;;;18.75;65.46;101348.75;5091132;27;46556;-49
2023/09/15 04:02:29;;;;;;;;;5.33;5.33;;;;;18.72;65.21;101341.75;5070994;27;45532;-51
2023/09/15 04:04:54;;;;;;;;;5.67;4.00;;;;;18.71;65.49;101337.34;5084311;27;65450;-53
2023/09/15 04:07:20;;;;;;;;;4.00;4.00;;;;;18.68;65.53;101341.13;5094761;27;67174;-49
2023/09/15 04:09:45;;;;;;;;;5.00;4.33;;;;;18.67;65.80;101344.78;5092989;27;46699;-47
2023/09/15 04:12:10;;;;;;;;;4.00;4.00;;;;;18.68;65.56;101338.44;5085884;27;45490;-51
2023/09/15 04:14:36;;;;;;;;;3.00;3.00;;;;;18.70;65.57;101334.75;5086133;27;45826;-49
2023/09/15 04:17:04;;;;;;;;;7.67;7.00;;;;;18.69;65.45;101333.88;5087209;27;67681;-48
2023/09/15 04:19:30;;;;;;;;;5.00;4.00;;;;;18.64;65.58;101334.25;5096956;27;46189;-52
2023/09/15 04:21:55;;;;;;;;;5.33;5.33;;;;;18.61;65.50;101334.47;5089825;27;45432;-53
2023/09/15 04:24:20;;;;;;;;;5.33;4.00;;;;;18.61;66.07;101328.22;5087605;27;45414;-50
2023/09/15 04:26:46;;;;;;;;;5.00;5.00;;;;;18.60;65.46;101327.34;5089321;27;45484;-52
2023/09/15 04:29:11;;;;;;;;;1.67;0.67;;;;;18.59;65.09;101324.78;5091758;27;46099;-52
2023/09/15 04:31:37;;;;;;;;;6.33;5.00;;;;;18.59;65.84;101322.09;5087200;27;45730;-51
2023/09/15 04:34:03;;;;;;;;;3.33;3.33;;;;;18.59;65.97;101316.69;5087042;27;45668;-53
2023/09/15 04:36:29;;;;;;;;;8.67;7.00;;;;;18.60;65.61;101318.44;5074443;27;45418;-53
2023/09/15 04:38:55;;;;;;;;;5.00;5.00;;;;;18.59;65.72;101311.31;5091545;27;46126;-53
2023/09/15 04:41:21;;;;;;;;;5.67;4.33;;;;;18.59;65.68;101309.50;5095675;27;45239;-52
2023/09/15 04:43:47;;;;;;;;;6.00;6.00;;;;;18.57;65.41;101311.44;5099484;27;45338;-49
2023/09/15 04:46:12;;;;;;;;;5.67;5.67;;;;;18.54;65.77;101303.59;5092845;27;45436;-52
2023/09/15 04:48:37;;;;;;;;;6.33;5.00;;;;;18.52;66.10;101303.72;5092624;27;45711;-51
2023/09/15 04:51:03;;;;;;;;;5.00;5.00;;;;;18.49;65.79;101303.09;5086755;27;71697;-49
2023/09/15 04:53:28;;;;;;;;;5.00;5.00;;;;;18.46;66.08;101298.78;5090623;27;64082;-53
2023/09/15 04:55:53;;;;;;;;;6.00;4.00;;;;;18.44;65.86;101302.56;5089709;27;67305;-52
2023/09/15 04:58:19;;;;;;;;;4.67;4.67;;;;;18.44;66.14;101299.88;5064657;27;74162;-52
2023/09/15 05:00:44;;;;;;;;;4.00;4.00;;;;;18.44;66.32;101303.44;5071797;27;70243;-51
2023/09/15 05:03:09;;;;;;;;;5.00;5.00;;;;;18.40;66.23;101296.56;5094543;27;45915;-49
2023/09/15 05:05:35;;;;;;;;;5.00;5.00;;;;;18.39;66.15;101293.97;5091375;27;45334;-50
2023/09/15 05:08:01;;;;;;;;;4.67;4.67;;;;;18.37;65.85;101301.31;5086703;27;47196;-51
2023/09/15 05:10:26;;;;;;;;;6.00;6.00;;;;;18.32;66.48;101291.75;5086073;27;45452;-50
2023/09/15 05:12:52;;;;;;;;;6.33;6.33;;;;;18.30;66.60;101298.22;5086358;27;45802;-49
2023/09/15 05:15:17;;;;;;;;;5.00;5.00;;;;;18.29;66.36;101300.06;5080432;27;45545;-48
2023/09/15 05:17:44;;;;;;;;;7.00;7.00;;;;;18.29;66.63;101308.16;5075775;27;45979;-50
2023/09/15 05:20:10;;;;;;;;;8.67;5.00;;;;;18.26;66.68;101304.81;5083963;27;46519;-52
2023/09/15 05:22:35;;;;;;;;;8.00;5.00;;;;;18.27;67.01;101317.31;5083343;27;45404;-49
2023/09/15 05:25:04;;;;;;;;;6.00;5.67;;;;;18.29;66.67;101312.66;5085712;27;45210;-51
2023/09/15 05:27:30;;;;;;;;;2.00;2.00;;;;;18.31;66.98;101318.78;5090812;27;47088;-49
2023/09/15 05:29:55;;;;;;;;;5.67;4.33;;;;;18.35;66.81;101312.19;5087868;27;45411;-54
2023/09/15 05:32:21;;;;;;;;;5.67;5.00;;;;;18.38;66.91;101320.03;5081350;27;63881;-50
2023/09/15 05:34:46;;;;;;;;;9.00;7.00;;;;;18.40;66.82;101315.41;5072178;27;45742;-51
2023/09/15 05:37:12;;;;;;;;;5.00;5.00;;;;;18.43;66.84;101311.63;5065918;27;46239;-52
2023/09/15 05:39:37;;;;;;;;;6.67;6.67;;;;;18.45;67.14;101310.53;5070597;27;45398;-51
2023/09/15 05:42:02;;;;;;;;;7.33;6.33;;;;;18.47;67.11;101315.81;5086747;27;45527;-50
2023/09/15 05:44:28;;;;;;;;;5.33;5.33;;;;;18.50;66.42;101312.91;5091623;27;45306;-52
2023/09/15 05:46:53;;;;;;;;;8.00;7.00;;;;;18.53;66.70;101312.66;5086602;27;45427;-50
2023/09/15 05:49:19;;;;;;;;;9.67;5.33;;;;;18.53;66.58;101309.97;5096503;27;45419;-52
2023/09/15 05:51:44;;;;;;;;;7.00;6.00;;;;;18.55;66.94;101309.84;5087346;27;45327;-51
2023/09/15 05:54:09;;;;;;;;;11.00;9.00;;;;;18.56;66.56;101309.72;5083404;27;45854;-51
2023/09/15 05:56:35;;;;;;;;;6.67;5.67;;;;;18.59;66.29;101306.81;5091021;27;75240;-51
2023/09/15 05:59:00;;;;;;;;;8.33;8.33;;;;;18.65;66.40;101314.41;5096617;27;45427;-51
2023/09/15 06:01:26;;;;;;;;;7.67;7.00;;;;;18.69;66.74;101309.66;5085163;27;45714;-52
2023/09/15 06:03:51;;;;;;;;;10.33;7.67;;;;;18.73;66.78;101302.19;5067995;27;46754;-52
2023/09/15 06:06:17;;;;;;;;;8.00;7.00;;;;;18.78;65.98;101303.53;5092033;27;47365;-52
2023/09/15 06:08:42;;;;;;;;;7.00;7.00;;;;;18.85;65.98;101307.50;5070280;27;45948;-51
2023/09/15 06:11:07;;;;;;;;;6.00;6.00;;;;;18.93;65.53;101311.44;5089952;27;45606;-51
2023/09/15 06:13:34;;;;;;;;;9.00;7.00;;;;;18.98;65.86;101310.13;5096817;27;66032;-49
2023/09/15 06:15:59;;;;;;;;;9.00;6.00;;;;;19.06;65.84;101308.66;5089870;27;46200;-49
2023/09/15 06:18:25;;;;;;;;;6.33;6.00;;;;;19.15;65.78;101316.91;5088330;27;60474;-48
2023/09/15 06:20:54;;;;;;;;;8.33;8.00;;;;;19.27;65.17;101314.22;5093132;27;58124;-49
2023/09/15 06:23:20;;;;;;;;;6.33;6.33;;;;;19.41;65.25;101323.91;5089870;27;45363;-48
2023/09/15 06:25:46;;;;;;;;;6.33;6.00;;;;;19.54;64.64;101319.25;5085696;27;45366;-51
2023/09/15 06:28:12;;;;;;;;;8.33;8.33;;;;;19.67;64.33;101306.50;5079683;27;45466;-48
2023/09/15 06:30:37;;;;;;;;;9.67;9.33;;;;;19.80;64.02;101310.91;5074429;28;45229;-50
2023/09/15 06:33:03;;;;;;;;;11.33;8.67;;;;;20.06;63.84;101307.94;5078298;27;65909;-51
2023/09/15 06:35:28;;;;;;;;;1.67;1.33;;;;;20.67;63.59;101307.34;5085380;27;46941;-50
2023/09/15 06:37:53;;;;;;;;;8.67;8.67;;;;;22.27;61.12;101299.72;5071825;28;51385;-51
2023/09/15 06:40:19;;;;;;;;;8.00;7.00;;;;;24.63;57.35;101294.25;5088291;27;45892;-49
2023/09/15 06:42:44;;;;;;;;;5.00;4.00;;;;;26.85;54.31;101292.44;5072744;27;45500;-49
2023/09/15 06:45:11;;;;;;;;;5.00;5.00;;;;;28.88;50.98;101297.25;5086963;27;63273;-48
2023/09/15 06:47:36;;;;;;;;;4.00;3.00;;;;;30.60;47.02;101289.78;5081577;27;45307;-48
2023/09/15 06:50:03;;;;;;;;;8.00;7.67;;;;;31.96;43.72;101301.41;5078327;28;45332;-49
2023/09/15 06:52:28;;;;;;;;;8.00;7.00;;;;;32.86;40.92;101286.53;5067157;28;45319;-48
2023/09/15 06:54:53;;;;;;;;;9.00;6.00;;;;;33.26;40.81;101300.22;5079061;28;46300;-47
2023/09/15 06:57:19;;;;;;;;;7.00;7.00;;;;;32.72;37.57;101299.41;5079353;27;69670;-48
2023/09/15 06:59:44;;;;;;;;;8.00;8.00;;;;;30.91;38.81;101304.16;5080049;27;62877;-50
2023/09/15 07:02:10;;;;;;;;;9.25;8.00;;;;;29.25;39.84;101313.81;5075369;27;64592;-51
2023/09/15 07:04:35;;;;;;;;;8.00;8.00;;;;;27.88;42.20;101306.31;5088471;27;46045;-48
2023/09/15 07:07:00;;;;;;;;;8.25;7.00;;;;;26.82;43.73;101308.34;5068018;27;64450;-48
2023/09/15 07:09:25;;;;;;;;;5.75;4.75;;;;;26.02;45.54;101305.13;5094759;27;67332;-50
2023/09/15 07:11:51;;;;;;;;;8.50;7.00;;;;;25.43;46.58;101308.66;5085599;27;70596;-49
2023/09/15 07:14:17;;;;;;;;;7.50;7.00;;;;;24.96;47.04;101305.44;5093681;27;46013;-48
2023/09/15 07:16:43;;;;;;;;;6.75;6.75;;;;;24.57;48.50;101301.16;5082808;27;45331;-49
2023/09/15 07:19:09;;;;;;;;;8.00;8.00;;;;;24.27;48.78;101296.00;5093501;27;45573;-51
2023/09/15 07:21:37;;;;;;;;;8.75;6.25;;;;;24.00;49.28;101296.03;5090395;27;45497;-49
2023/09/15 07:24:02;;;;;;;;;8.50;8.50;;;;;23.72;49.74;101287.88;5094010;27;46146;-49
2023/09/15 07:26:28;;;;;;;;;10.25;8.75;;;;;23.50;50.14;101298.13;5092223;27;45377;-51
2023/09/15 07:28:53;;;;;;;;;9.00;8.25;;;;;23.32;50.81;101299.91;5089643;27;45453;-50
2023/09/15 07:31:20;;;;;;;;;12.75;10.00;;;;;23.18;51.59;101291.25;5081455;27;67463;-49
2023/09/15 07:33:45;;;;;;;;;8.33;8.33;;;;;23.04;51.46;101292.53;5080409;27;46128;-50
2023/09/15 07:36:11;;;;;;;;;10.00;8.00;;;;;22.87;51.78;101291.44;5091615;27;45544;-47
2023/09/15 07:38:36;;;;;;;;;9.33;8.33;;;;;22.61;52.47;101292.03;5086665;27;67609;-48
2023/09/15 07:41:02;;;;;;;;;6.33;6.33;;;;;22.45;52.72;101292.63;5095974;27;45389;-51
2023/09/15 07:43:27;;;;;;;;;9.67;9.67;;;;;22.26;53.30;101285.28;5089880;27;45962;-52
2023/09/15 07:45:53;;;;;;;;;7.00;7.00;;;;;22.13;53.47;101287.41;5081976;27;71284;-51
2023/09/15 07:48:18;;;;;;;;;8.00;8.00;;;;;22.07;54.39;101286.16;5096680;27;45559;-48
2023/09/15 07:50:43;;;;;;;;;9.00;7.33;;;;;21.96;54.27;101284.41;5092375;27;45565;-49
2023/09/15 07:53:10;;;;;;;;;8.67;8.00;;;;;21.86;55.09;101285.38;5095055;27;45365;-48
2023/09/15 07:55:35;;;;;;;;;7.00;7.00;;;;;21.84;54.79;101274.69;5090039;27;45438;-49
2023/09/15 07:58:00;;;;;;;;;10.33;7.33;;;;;21.89;55.14;101283.25;5097434;27;45307;-49
2023/09/15 08:00:26;;;;;;;;;9.33;8.00;;;;;21.90;55.04;101267.84;5098422;27;67370;-49
2023/09/15 08:02:51;;;;;;;;;7.00;7.00;;;;;21.89;55.34;101268.84;5091252;27;64992;-49
2023/09/15 08:05:16;;;;;;;;;6.00;5.00;;;;;21.86;56.13;101269.97;5084273;27;69891;-50
2023/09/15 08:07:46;;;;;;;;;9.00;8.00;;;;;21.81;55.26;101258.69;5098971;27;63501;-48
2023/09/15 08:10:13;;;;;;;;;6.00;6.00;;;;;21.76;55.54;101261.84;5091329;27;45322;-52
2023/09/15 08:12:39;;;;;;;;;10.00;8.00;;;;;21.73;55.72;101262.13;5057068;27;47201;-52
2023/09/15 08:15:05;;;;;;;;;8.00;8.00;;;;;21.72;55.78;101262.25;5097045;27;67750;-49
2023/09/15 08:17:31;;;;;;;;;9.67;8.00;;;;;21.71;55.81;101260.56;5095255;27;45577;-47
2023/09/15 08:19:57;;;;;;;;;13.67;10.67;;;;;21.72;56.04;101259.53;5082648;27;72346;-49
2023/09/15 08:22:26;;;;;;;;;8.67;8.67;;;;;21.73;56.02;101255.84;5075201;27;46124;-50
2023/09/15 08:24:52;;;;;;;;;10.00;6.67;;;;;21.72;55.73;101252.28;5089199;27;45618;-51
2023/09/15 08:27:18;;;;;;;;;7.00;7.00;;;;;21.67;55.89;101257.28;5100492;27;45223;-49
2023/09/15 08:29:43;;;;;;;;;8.67;7.00;;;;;21.65;56.84;101256.53;5089774;27;45315;-49
2023/09/15 08:32:11;;;;;;;;;8.00;7.00;;;;;21.64;56.50;101253.00;5093184;27;48779;-48
2023/09/15 08:34:37;;;;;;;;;10.00;10.00;;;;;;;;5097628;27;45468;-49
2023/09/15 08:37:03;;;;;;;;;9.33;9.33;;;;;21.71;56.46;101263.28;5096125;27;45394;-49
2023/09/15 08:39:28;;;;;;;;;11.00;8.67;;;;;21.71;56.70;101260.56;5071194;27;45405;-49
2023/09/15 08:41:58;;;;;;;;;11.00;9.00;;;;;21.73;56.80;101266.69;5087350;27;45347;-48
2023/09/15 08:44:24;;;;;;;;;8.33;8.33;;;;;21.80;56.63;101262.44;5084981;27;45368;-48
2023/09/15 08:46:49;;;;;;;;;12.00;10.00;;;;;21.87;56.51;101268.13;5100201;27;45394;-47
2023/09/15 08:49:16;;;;;;;;;9.00;8.67;;;;;21.93;56.40;101264.88;5092271;27;45394;-48
2023/09/15 08:51:41;;;;;;;;;9.67;8.67;;;;;21.98;56.34;101255.34;5089570;27;46886;-48
2023/09/15 08:54:07;;;;;;;;;8.33;7.33;;;;;22.05;56.29;101271.88;5090726;27;45378;-46
2023/09/15 08:56:32;;;;;;;;;10.00;9.00;;;;;22.08;55.90;101270.75;5066062;27;45578;-49
2023/09/15 08:58:59;;;;;;;;;8.00;8.00;;;;;22.11;56.07;101268.59;5064043;27;51260;-47
2023/09/15 09:01:24;;;;;;;;;9.00;9.00;;;;;22.17;56.23;101269.88;5083219;27;46339;-46
2023/09/15 09:03:50;;;;;;;;;8.67;7.00;;;;;22.26;55.99;101265.47;5090338;27;67052;-46
2023/09/15 09:06:16;;;;;;;;;8.00;8.00;;;;;22.33;55.82;101265.75;5089724;27;67345;-49
2023/09/15 09:08:46;;;;;;;;;6.33;6.33;;;;;22.44;55.80;101268.38;5081435;27;45358;-47
2023/09/15 09:11:12;;;;;;;;;9.33;7.33;;;;;23.83;55.56;101263.25;5090809;27;45641;-47
2023/09/15 09:13:38;;;;;;;;;7.00;7.00;;;;;26.53;51.11;101261.44;5084528;27;45482;-47
2023/09/15 09:16:07;;;;;;;;;12.00;11.00;;;;;29.10;46.45;101250.84;5086830;27;45437;-49
2023/09/15 09:18:33;;;;;;;;;9.00;6.00;;;;;31.25;44.04;101250.31;5087214;27;45608;-50
2023/09/15 09:20:59;;;;;;;;;14.00;9.00;;;;;33.05;39.77;101243.47;5094271;27;46400;-48
2023/09/15 09:23:24;;;;;;;;;7.00;7.00;;;;;34.61;38.09;101254.34;5062653;27;45488;-50
2023/09/15 09:25:49;;;;;;;;;8.33;6.00;;;;;35.94;34.72;101245.63;5084683;27;67077;-53
2023/09/15 09:28:15;;;;;;;;;6.33;6.33;;;;;36.56;32.99;101242.50;5085816;27;45622;-50
2023/09/15 09:30:41;;;;;;;;;7.00;7.00;;;;;37.25;34.24;101244.63;5088710;27;46849;-52
2023/09/15 09:33:08;;;;;;;;;6.75;6.25;;;;;38.08;30.99;101239.88;5091466;27;45596;-51
2023/09/15 09:35:34;;;;;;;;;10.00;8.25;;;;;38.73;31.97;101244.03;5096527;27;45473;-52
2023/09/15 09:38:00;;;;;;;;;9.75;9.75;;;;;39.15;30.00;101248.22;5079856;27;45426;-50
2023/09/15 09:40:26;;;;;;;;;8.00;7.75;;;;;39.42;29.90;101244.72;5063593;27;45359;-49
2023/09/15 09:42:53;;;;;;;;;7.00;6.00;;;;;39.69;29.57;101242.00;5087841;27;45383;-50
2023/09/15 09:45:27;;;;;;;;;6.00;5.25;;;;;39.99;27.60;101248.97;5082393;27;45605;-50
2023/09/15 09:47:54;;;;;;;;;10.50;9.25;;;;;40.21;24.98;101243.34;5076962;27;45492;-49
2023/09/15 09:50:20;;;;;;;;;8.00;7.25;;;;;40.27;27.87;101242.25;5087521;27;47118;-51
2023/09/15 09:52:46;;;;;;;;;9.50;5.75;;;;;40.33;27.98;101243.16;5075159;27;72911;-52
2023/09/15 09:55:12;;;;;;;;;7.50;7.50;;;;;40.30;26.54;101238.97;5072523;27;45442;-53
2023/09/15 09:57:38;;;;;;;;;8.50;7.75;;;;;40.24;24.27;101242.81;5090534;27;45613;-51
2023/09/15 10:00:04;;;;;;;;;9.75;9.25;;;;;40.22;26.03;101236.66;5073961;27;46137;-53
2023/09/15 10:02:30;;;;;;;;;5.50;5.50;;;;;40.26;27.09;101237.81;5089654;27;45280;-49
2023/09/15 10:04:55;;;;;;;;;9.00;8.25;;;;;40.08;22.65;101238.19;5079324;27;45460;-51
2023/09/15 10:07:21;;;;;;;;;6.00;6.00;;;;;39.75;25.40;101238.13;5071721;27;45573;-53
2023/09/15 10:09:47;;;;;;;;;8.75;8.75;;;;;39.79;23.90;101235.66;5069383;27;46096;-52
2023/09/15 10:12:13;;;;;;;;;6.00;6.00;;;;;39.89;25.31;101227.44;5090232;27;67190;-53
2023/09/15 10:14:39;;;;;;;;;5.00;5.00;;;;;39.88;26.58;101222.97;5097556;27;45468;-54
2023/09/15 10:17:04;;;;;;;;;5.75;5.75;;;;;39.85;26.50;101226.28;5060117;27;45527;-53
2023/09/15 10:19:30;;;;;;;;;10.00;10.00;;;;;39.70;22.87;101226.97;5061099;27;75154;-52
2023/09/15 10:21:57;;;;;;;;;7.75;7.75;;;;;39.33;26.25;101222.91;5089606;27;45446;-52
2023/09/15 10:24:22;;;;;;;;;15.00;10.50;;;;;39.10;25.27;101217.59;5068289;27;45363;-51
2023/09/15 10:26:48;;;;;;;;;6.75;6.50;;;;;38.84;26.91;101211.69;5088373;27;45302;-52
2023/09/15 10:29:13;;;;;;;;;6.25;6.00;;;;;38.84;25.92;101206.97;5096279;27;57959;-50
2023/09/15 10:31:44;;;;;;;;;5.50;5.50;;;;;38.63;26.00;101211.38;5075890;27;45426;-52
2023/09/15 10:34:09;;;;;;;;;11.75;11.00;;;;;38.23;25.98;101204.06;5086695;27;45450;-51
2023/09/15 10:36:35;;;;;;;;;7.00;7.00;;;;;37.99;26.63;101204.22;5086680;27;45698;-51
2023/09/15 10:39:36;;;;;;;;;6.25;6.00;;;;;37.80;26.60;101191.69;5087282;27;68865;-52
2023/09/15 10:42:09;;;;;;;;;6.00;6.00;;;;;37.89;26.78;101184.63;5072414;27;45453;-52
2023/09/15 10:44:34;;;;;;;;;4.50;4.50;;;;;37.89;27.47;101185.44;5090119;27;46194;-48
2023/09/15 10:47:00;;;;;;;;;6.75;5.75;;;;;37.65;27.08;101184.69;5094507;27;45362;-51
2023/09/15 10:49:26;;;;;;;;;5.00;4.50;;;;;37.38;26.89;101177.00;5077480;27;48189;-52
2023/09/15 10:51:59;;;;;;;;;5.25;5.25;;;;;37.00;27.02;101174.78;5083981;27;69434;-48
2023/09/15 10:54:26;;;;;;;;;8.00;5.50;;;;;36.91;27.85;101161.34;5086113;27;45947;-49
2023/09/15 10:56:52;;;;;;;;;3.25;3.25;;;;;36.85;27.68;101172.56;5066947;27;45969;-50
2023/09/15 10:59:18;;;;;;;;;5.00;5.00;;;;;36.83;26.46;101158.94;5096654;27;45469;-50
2023/09/15 11:01:44;;;;;;;;;4.25;2.75;;;;;36.80;27.64;101162.16;5072083;27;45504;-52
2023/09/15 11:04:17;;;;;;;;;5.50;4.00;;;;;36.74;26.74;101160.34;5071289;27;45715;-48
2023/09/15 11:06:46;;;;;;;;;5.75;5.75;;;;;36.61;26.72;101155.94;5067573;27;45408;-50
2023/09/15 11:09:13;;;;;;;;;3.75;3.75;;;;;36.55;27.62;101151.38;5061564;28;47510;-51
2023/09/15 11:11:42;;;;;;;;;3.75;3.75;;;;;36.64;27.94;101143.53;5065941;27;45386;-51
2023/09/15 11:14:08;;;;;;;;;4.25;4.25;;;;;36.68;27.94;101144.72;5083475;27;45590;-52
2023/09/15 11:16:34;;;;;;;;;3.50;3.50;;;;;36.51;27.35;101141.88;5073752;27;45342;-52
2023/09/15 11:19:01;;;;;;;;;4.00;3.50;;;;;36.28;27.53;101135.19;5077569;27;47075;-49
2023/09/15 11:21:27;;;;;;;;;3.00;2.00;;;;;36.03;27.52;101133.50;5088767;27;45491;-52